Time;durP1;ratioP1;P1;durP2;ratioP2;P2;SDS_P1;SDS_P2;PMS_P1;PMS_P2;Temp;Humidity;BMP_temperature;BMP_pressure;BME280_temperature;BME280_humidity;BME280_pressure;Samples;Min_cycle;Max_cycle;Signal;HPM_P1;HPM_P2
2022/07/06 00:00:51;;;;;;;4.35;2.60;;;15.70;99.90;;;;;;5098023;28;20604;-69
2022/07/06 00:03:16;;;;;;;3.97;2.20;;;15.60;99.90;;;;;;5097508;28;20250;-69
2022/07/06 00:05:42;;;;;;;3.75;2.35;;;15.60;99.90;;;;;;5096181;28;20178;-69
2022/07/06 00:08:08;;;;;;;4.65;2.40;;;15.60;99.90;;;;;;5097322;28;20249;-69
2022/07/06 00:10:34;;;;;;;2.85;2.42;;;15.50;99.90;;;;;;5096321;28;20216;-69
2022/07/06 00:12:59;;;;;;;5.60;2.65;;;15.50;99.90;;;;;;5097454;28;20702;-68
2022/07/06 00:15:25;;;;;;;4.90;2.30;;;15.40;99.90;;;;;;5097257;28;20682;-69
2022/07/06 00:17:51;;;;;;;4.90;2.47;;;15.40;99.90;;;;;;5095895;28;20219;-69
2022/07/06 00:20:17;;;;;;;3.70;2.55;;;15.30;99.90;;;;;;5095592;28;20184;-69
2022/07/06 00:22:43;;;;;;;7.47;2.80;;;15.20;99.90;;;;;;5095849;28;20250;-69
2022/07/06 00:25:08;;;;;;;4.40;2.80;;;15.20;99.90;;;;;;5097372;28;20173;-69
2022/07/06 00:27:34;;;;;;;3.45;2.40;;;15.10;99.90;;;;;;5097162;28;20561;-69
2022/07/06 00:30:00;;;;;;;3.53;2.42;;;15.00;99.90;;;;;;5097137;28;20261;-69
2022/07/06 00:32:27;;;;;;;4.07;2.60;;;15.00;99.90;;;;;;5097622;28;20184;-69
2022/07/06 00:34:53;;;;;;;4.47;2.72;;;15.00;99.90;;;;;;5097455;28;20544;-69
2022/07/06 00:37:18;;;;;;;6.47;2.50;;;15.00;99.90;;;;;;5098601;28;20177;-69
2022/07/06 00:39:44;;;;;;;4.82;2.72;;;15.00;99.90;;;;;;5098331;28;20266;-69
2022/07/06 00:42:10;;;;;;;3.30;2.60;;;15.00;99.90;;;;;;5097093;28;20200;-69
2022/07/06 00:44:36;;;;;;;6.85;2.70;;;15.00;99.90;;;;;;5096224;28;20181;-69
2022/07/06 00:47:02;;;;;;;6.47;3.40;;;14.90;99.90;;;;;;5096426;28;20173;-69
2022/07/06 00:52:12;;;;;;;4.45;2.88;;;14.90;99.90;;;;;;5096013;28;20187;-69
2022/07/06 00:54:40;;;;;;;3.97;2.80;;;14.80;99.90;;;;;;5096822;28;20165;-69
2022/07/06 00:57:06;;;;;;;4.30;2.58;;;14.90;99.90;;;;;;5097000;28;20169;-68
2022/07/06 00:59:32;;;;;;;5.38;2.60;;;14.80;99.90;;;;;;5097065;28;20581;-69
2022/07/06 01:01:58;;;;;;;4.55;3.00;;;14.90;99.90;;;;;;5096608;28;20242;-69
2022/07/06 01:04:24;;;;;;;3.17;2.75;;;14.90;99.90;;;;;;5094807;28;20177;-69
2022/07/06 01:06:50;;;;;;;5.78;2.90;;;14.90;99.90;;;;;;5095008;28;20177;-69
2022/07/06 01:09:16;;;;;;;4.25;3.08;;;14.80;99.90;;;;;;5096168;28;20220;-69
2022/07/06 01:11:43;;;;;;;4.22;3.17;;;14.80;99.90;;;;;;5096156;28;20197;-69
2022/07/06 01:14:09;;;;;;;4.72;2.90;;;14.80;99.90;;;;;;5094857;28;20177;-69
2022/07/06 01:16:35;;;;;;;5.88;2.65;;;14.70;99.90;;;;;;5096360;28;20287;-69
2022/07/06 01:19:00;;;;;;;4.32;3.03;;;14.70;99.90;;;;;;5095828;28;20270;-69
2022/07/06 01:21:26;;;;;;;2.80;2.22;;;14.60;99.90;;;;;;5096134;28;20219;-69
2022/07/06 01:23:52;;;;;;;5.28;3.08;;;14.60;99.90;;;;;;5095912;28;20177;-69
2022/07/06 01:26:19;;;;;;;3.15;2.65;;;14.50;99.90;;;;;;5096461;28;20177;-69
2022/07/06 01:28:47;;;;;;;5.50;2.80;;;14.40;99.90;;;;;;5094322;28;20232;-69
2022/07/06 01:31:24;;;;;;;5.72;2.72;;;14.40;99.90;;;;;;5095767;28;20243;-69
2022/07/06 01:33:52;;;;;;;5.93;2.97;;;14.40;99.90;;;;;;5094140;28;20211;-69
2022/07/06 01:36:17;;;;;;;4.20;3.15;;;14.30;99.90;;;;;;5095927;28;20610;-69
2022/07/06 01:38:54;;;;;;;5.35;3.05;;;14.30;99.90;;;;;;5095512;28;20197;-69
2022/07/06 01:41:21;;;;;;;6.28;3.03;;;14.30;99.90;;;;;;5095500;28;20169;-69
2022/07/06 01:43:46;;;;;;;5.93;3.40;;;14.30;99.90;;;;;;5094142;28;20549;-69
2022/07/06 01:46:13;;;;;;;5.68;2.95;;;14.30;99.90;;;;;;5095425;28;20174;-69
2022/07/06 01:48:39;;;;;;;7.07;2.80;;;14.20;99.90;;;;;;5095316;28;20205;-69
2022/07/06 01:51:05;;;;;;;5.75;3.63;;;14.20;99.90;;;;;;5095115;28;20259;-69
2022/07/06 01:53:31;;;;;;;3.88;2.85;;;14.20;99.90;;;;;;5095353;28;20177;-69
2022/07/06 01:55:56;;;;;;;4.03;2.67;;;14.10;99.90;;;;;;5093906;28;20184;-69
2022/07/06 01:58:22;;;;;;;5.03;2.80;;;14.10;99.90;;;;;;5093715;28;20242;-69
2022/07/06 02:00:48;;;;;;;6.88;3.03;;;14.00;99.90;;;;;;5095023;28;20248;-69
2022/07/06 02:03:14;;;;;;;7.57;2.90;;;14.00;99.90;;;;;;5093577;28;20208;-69
2022/07/06 02:05:39;;;;;;;5.90;2.80;;;14.00;99.90;;;;;;5094860;28;20188;-69
2022/07/06 02:08:05;;;;;;;5.53;3.70;;;14.00;99.90;;;;;;5093610;28;20234;-69
2022/07/06 02:10:31;;;;;;;8.90;2.70;;;14.10;99.90;;;;;;5095639;28;20521;-69
2022/07/06 02:12:57;;;;;;;5.50;2.75;;;14.10;99.90;;;;;;5094819;28;20173;-69
2022/07/06 02:15:22;;;;;;;5.10;2.80;;;14.10;99.90;;;;;;5094742;28;20687;-69
2022/07/06 02:17:48;;;;;;;7.15;3.00;;;14.10;99.90;;;;;;5094511;28;20269;-69
2022/07/06 02:20:14;;;;;;;4.05;2.83;;;14.00;99.90;;;;;;5093040;28;20190;-69
2022/07/06 02:22:40;;;;;;;6.05;3.13;;;14.00;99.90;;;;;;5094662;28;20235;-69
2022/07/06 02:25:06;;;;;;;3.70;2.75;;;14.10;99.90;;;;;;5095087;28;20218;-69
2022/07/06 02:27:31;;;;;;;4.93;3.10;;;14.10;99.90;;;;;;5094338;28;20193;-69
2022/07/06 02:29:57;;;;;;;6.57;3.35;;;14.10;99.90;;;;;;5094468;28;20591;-69
2022/07/06 02:32:23;;;;;;;3.05;2.75;;;14.00;99.90;;;;;;5095008;28;20173;-69
2022/07/06 02:34:49;;;;;;;5.80;2.80;;;13.80;99.90;;;;;;5092840;28;20184;-69
2022/07/06 02:37:15;;;;;;;3.95;2.83;;;13.90;99.90;;;;;;5094375;28;20165;-69
2022/07/06 02:39:40;;;;;;;5.82;3.30;;;13.90;99.90;;;;;;5094649;28;20178;-69
2022/07/06 02:42:06;;;;;;;4.90;3.08;;;14.00;99.90;;;;;;5094316;28;20714;-69
2022/07/06 02:44:32;;;;;;;3.65;3.10;;;13.90;99.90;;;;;;5094416;28;20218;-69
2022/07/06 02:46:58;;;;;;;4.93;2.85;;;14.00;99.90;;;;;;5094278;28;20282;-69
2022/07/06 02:49:24;;;;;;;3.30;2.95;;;13.90;99.90;;;;;;5092560;28;20705;-70
2022/07/06 02:51:49;;;;;;;4.43;3.08;;;13.80;99.90;;;;;;5094138;28;20638;-69
2022/07/06 02:54:15;;;;;;;6.55;2.88;;;13.80;99.90;;;;;;5094697;28;20185;-69
2022/07/06 02:56:41;;;;;;;8.82;3.22;;;13.70;99.90;;;;;;5094050;28;20176;-69
2022/07/06 02:59:07;;;;;;;5.80;3.40;;;13.70;99.90;;;;;;5092665;28;20291;-69
2022/07/06 03:01:32;;;;;;;5.13;2.90;;;13.70;99.90;;;;;;5093941;28;20177;-69
2022/07/06 03:03:58;;;;;;;8.50;3.10;;;13.60;99.90;;;;;;5093923;28;20157;-69
2022/07/06 03:06:24;;;;;;;3.38;2.83;;;13.50;99.90;;;;;;5092385;28;20173;-69
2022/07/06 03:08:49;;;;;;;4.35;2.72;;;13.40;99.90;;;;;;5092511;28;20270;-69
2022/07/06 03:11:15;;;;;;;4.03;2.80;;;13.20;99.90;;;;;;5093832;28;20178;-69
2022/07/06 03:13:41;;;;;;;3.28;2.90;;;13.00;99.90;;;;;;5093812;28;20184;-69
2022/07/06 03:16:07;;;;;;;5.40;3.27;;;12.90;99.90;;;;;;5093449;28;20180;-69
2022/07/06 03:18:32;;;;;;;6.40;3.63;;;12.80;99.90;;;;;;5092789;28;20561;-70
2022/07/06 03:20:58;;;;;;;7.70;3.00;;;12.80;99.90;;;;;;5092416;28;20192;-69
2022/07/06 03:23:24;;;;;;;4.53;3.20;;;12.80;99.90;;;;;;5092525;28;20200;-69
2022/07/06 03:25:50;;;;;;;4.97;3.33;;;12.80;99.90;;;;;;5092797;28;20181;-69
2022/07/06 03:28:15;;;;;;;4.00;3.07;;;12.80;99.90;;;;;;5092790;28;20201;-69
2022/07/06 03:30:41;;;;;;;5.53;3.30;;;12.80;99.90;;;;;;5094273;28;20511;-69
2022/07/06 03:33:07;;;;;;;3.87;3.13;;;12.80;99.90;;;;;;5093926;28;20181;-69
2022/07/06 03:35:33;;;;;;;6.67;3.67;;;12.80;99.90;;;;;;5092450;28;20184;-69
2022/07/06 03:37:58;;;;;;;4.57;3.20;;;12.70;99.90;;;;;;5093882;28;20196;-69
2022/07/06 03:40:24;;;;;;;8.63;3.10;;;12.80;99.90;;;;;;5094214;28;20173;-69
2022/07/06 03:42:50;;;;;;;6.63;3.27;;;12.70;99.90;;;;;;5093882;28;20200;-69
2022/07/06 03:45:16;;;;;;;3.70;3.03;;;12.60;99.90;;;;;;5093934;28;20173;-69
2022/07/06 03:47:41;;;;;;;5.03;3.17;;;12.70;99.90;;;;;;5093647;28;20769;-69
2022/07/06 03:50:08;;;;;;;5.70;3.60;;;12.70;99.90;;;;;;5093373;28;20181;-69
2022/07/06 03:52:35;;;;;;;8.25;3.30;;;12.70;99.90;;;;;;5093731;28;20182;-69
2022/07/06 03:55:01;;;;;;;5.23;3.20;;;12.80;99.90;;;;;;5093964;28;20173;-69
2022/07/06 03:57:26;;;;;;;5.07;3.40;;;12.80;99.90;;;;;;5092369;28;20252;-69
2022/07/06 03:59:52;;;;;;;5.73;3.40;;;12.80;99.90;;;;;;5092394;28;20212;-69
2022/07/06 04:02:18;;;;;;;7.30;3.50;;;12.60;99.90;;;;;;5094037;28;20208;-69
2022/07/06 04:04:44;;;;;;;4.63;3.50;;;12.60;99.90;;;;;;5093391;28;20169;-69
2022/07/06 04:07:09;;;;;;;6.77;3.37;;;12.60;99.90;;;;;;5092238;28;20173;-69
2022/07/06 04:09:35;;;;;;;5.87;3.87;;;12.60;99.90;;;;;;5093969;28;20527;-69
2022/07/06 04:12:01;;;;;;;8.20;4.63;;;12.60;99.90;;;;;;5092156;28;20176;-69
2022/07/06 04:14:27;;;;;;;6.33;3.83;;;12.50;99.90;;;;;;5092305;28;20181;-69
2022/07/06 04:16:53;;;;;;;5.00;3.60;;;12.50;99.90;;;;;;5092149;28;20263;-69
2022/07/06 04:19:18;;;;;;;7.23;3.77;;;12.60;99.90;;;;;;5091867;28;20219;-70
2022/07/06 04:21:44;;;;;;;5.17;4.13;;;12.70;99.90;;;;;;5093405;28;20208;-69
2022/07/06 04:24:10;;;;;;;6.90;3.85;;;12.80;99.90;;;;;;5091859;28;20592;-69
2022/07/06 04:26:35;;;;;;;4.97;3.70;;;12.90;99.90;;;;;;5093924;28;20260;-69
2022/07/06 04:29:01;;;;;;;5.90;3.90;;;12.90;99.90;;;;;;5097133;28;20280;-69
2022/07/06 04:31:27;;;;;;;6.80;3.40;;;12.90;99.90;;;;;;5097213;28;20172;-69
2022/07/06 04:33:53;;;;;;;3.75;3.28;;;13.00;99.90;;;;;;5097090;28;20180;-69
2022/07/06 04:36:18;;;;;;;5.00;3.87;;;13.10;99.90;;;;;;5096984;28;20224;-69
2022/07/06 04:38:47;;;;;;;8.57;4.10;;;13.10;99.90;;;;;;5095690;28;20284;-69
2022/07/06 04:41:13;;;;;;;9.90;3.97;;;13.10;99.90;;;;;;5097235;28;20320;-69
2022/07/06 04:43:39;;;;;;;5.13;3.90;;;13.10;99.90;;;;;;5096766;28;20284;-69
2022/07/06 04:46:05;;;;;;;6.10;4.43;;;13.00;99.90;;;;;;5096841;28;20166;-69
2022/07/06 04:48:32;;;;;;;6.27;3.77;;;13.10;99.90;;;;;;5096667;28;20311;-69
2022/07/06 04:50:58;;;;;;;18.30;9.13;;;13.20;99.90;;;;;;5096929;28;20192;-69
2022/07/06 04:53:24;;;;;;;8.60;4.27;;;13.30;99.90;;;;;;5095510;28;20177;-69
2022/07/06 04:55:50;;;;;;;6.90;4.03;;;13.30;99.90;;;;;;5096623;28;20181;-69
2022/07/06 04:58:15;;;;;;;7.00;3.87;;;13.40;99.90;;;;;;5096482;28;20252;-69
2022/07/06 05:00:41;;;;;;;8.27;3.85;;;13.40;99.90;;;;;;5095257;28;20630;-69
2022/07/06 05:03:07;;;;;;;5.33;3.70;;;13.50;99.90;;;;;;5095162;28;20227;-69
2022/07/06 05:05:32;;;;;;;5.85;3.60;;;13.60;99.90;;;;;;5094783;28;20656;-69
2022/07/06 05:07:58;;;;;;;8.00;4.13;;;13.70;99.90;;;;;;5094862;28;20242;-69
2022/07/06 05:10:24;;;;;;;10.02;5.10;;;13.80;99.90;;;;;;5095030;28;20173;-69
2022/07/06 05:12:50;;;;;;;7.38;4.03;;;13.90;99.90;;;;;;5096835;28;20173;-69
2022/07/06 05:15:15;;;;;;;7.60;4.03;;;14.00;99.90;;;;;;5096323;28;20180;-69
2022/07/06 05:17:41;;;;;;;6.35;3.70;;;14.20;99.90;;;;;;5096277;28;20216;-69
2022/07/06 05:20:07;;;;;;;6.13;4.00;;;14.20;99.90;;;;;;5095915;28;20193;-69
2022/07/06 05:22:33;;;;;;;5.38;3.38;;;14.30;99.90;;;;;;5096257;28;20228;-71
2022/07/06 05:24:59;;;;;;;6.70;3.40;;;14.40;99.90;;;;;;5096408;28;20646;-70
2022/07/06 05:27:25;;;;;;;5.65;3.20;;;14.40;99.90;;;;;;5096113;28;20165;-71
2022/07/06 05:29:50;;;;;;;7.78;3.15;;;14.40;99.90;;;;;;5096006;28;20215;-71
2022/07/06 05:32:16;;;;;;;5.70;2.95;;;14.30;99.90;;;;;;5096170;28;20181;-71
2022/07/06 05:34:42;;;;;;;5.05;2.88;;;14.30;99.90;;;;;;5094588;28;20177;-71
2022/07/06 05:37:07;;;;;;;3.75;2.70;;;14.40;99.90;;;;;;5096427;28;20175;-71
2022/07/06 05:39:33;;;;;;;3.72;3.03;;;14.40;99.90;;;;;;5095443;28;20207;-71
2022/07/06 05:41:59;;;;;;;4.22;2.72;;;14.50;99.90;;;;;;5094614;28;20204;-71
2022/07/06 05:44:25;;;;;;;6.53;3.10;;;14.40;99.90;;;;;;5095619;28;20211;-71
2022/07/06 05:46:51;;;;;;;5.65;3.10;;;14.30;99.90;;;;;;5095894;28;20169;-71
2022/07/06 05:52:01;;;;;;;8.10;3.22;;;14.10;99.90;;;;;;5096129;28;20256;-71
2022/07/06 05:54:26;;;;;;;7.50;3.55;;;14.00;99.90;;;;;;5095889;28;20193;-71
2022/07/06 05:56:52;;;;;;;7.28;3.58;;;14.00;99.90;;;;;;5095765;28;20184;-71
2022/07/06 05:59:18;;;;;;;4.83;3.30;;;14.10;99.90;;;;;;5095541;28;20294;-71
2022/07/06 06:01:43;;;;;;;9.40;3.55;;;14.20;99.90;;;;;;5095964;28;20596;-71
2022/07/06 06:04:09;;;;;;;7.15;3.63;;;14.30;99.90;;;;;;5094263;28;20551;-71
2022/07/06 06:06:35;;;;;;;7.35;3.45;;;14.40;99.90;;;;;;5095278;28;20173;-71
2022/07/06 06:09:01;;;;;;;6.80;3.40;;;14.50;99.90;;;;;;5094324;28;20201;-70
2022/07/06 06:11:26;;;;;;;7.72;3.70;;;14.60;99.90;;;;;;5094204;28;20215;-71
2022/07/06 06:13:52;;;;;;;5.78;3.42;;;14.50;99.90;;;;;;5095355;28;20604;-70
2022/07/06 06:16:18;;;;;;;5.80;3.20;;;14.50;99.90;;;;;;5095728;28;20260;-71
2022/07/06 06:18:43;;;;;;;8.27;3.03;;;14.60;99.90;;;;;;5097175;28;20230;-71
2022/07/06 06:21:10;;;;;;;7.50;3.17;;;14.70;99.90;;;;;;5114277;28;20625;-70
2022/07/06 06:23:35;;;;;;;10.85;3.13;;;14.90;99.90;;;;;;5115942;28;20193;-71
2022/07/06 06:26:01;;;;;;;6.22;2.80;;;14.90;99.90;;;;;;5116391;28;20168;-71
2022/07/06 06:28:27;;;;;;;3.75;2.90;;;14.90;99.90;;;;;;5115520;28;20219;-71
2022/07/06 06:30:53;;;;;;;4.70;2.72;;;15.00;99.90;;;;;;5115587;28;20179;-71
2022/07/06 06:33:20;;;;;;;5.47;3.60;;;15.20;99.90;;;;;;5114482;28;20180;-70
2022/07/06 06:35:51;;;;;;;5.43;3.17;;;15.30;99.90;;;;;;5115464;28;20208;-71
2022/07/06 06:38:18;;;;;;;7.88;2.85;;;15.40;99.90;;;;;;5115744;28;20208;-70
2022/07/06 06:40:44;;;;;;;4.82;2.78;;;15.50;99.90;;;;;;5114229;28;20173;-70
2022/07/06 06:43:10;;;;;;;4.40;2.80;;;15.60;99.90;;;;;;5115294;28;20219;-70
2022/07/06 06:45:36;;;;;;;5.43;2.85;;;15.60;99.90;;;;;;5115421;28;20168;-70
2022/07/06 06:48:02;;;;;;;7.25;2.80;;;15.60;99.90;;;;;;5114095;28;20192;-70
2022/07/06 06:50:28;;;;;;;4.60;2.70;;;15.60;99.90;;;;;;5096331;28;20588;-70
2022/07/06 06:52:54;;;;;;;4.28;2.67;;;15.60;99.90;;;;;;5095395;28;20181;-70
2022/07/06 06:55:20;;;;;;;2.95;2.35;;;15.60;99.90;;;;;;5095576;28;20205;-70
2022/07/06 06:57:46;;;;;;;8.98;3.38;;;15.60;99.90;;;;;;5097834;28;20220;-70
2022/07/06 07:00:12;;;;;;;3.03;2.40;;;15.60;99.90;;;;;;5097141;28;20177;-71
2022/07/06 07:02:39;;;;;;;3.08;2.30;;;15.80;99.90;;;;;;5096889;28;20219;-70
2022/07/06 07:05:05;;;;;;;5.15;2.47;;;16.00;99.90;;;;;;5100197;28;20195;-71
2022/07/06 07:07:31;;;;;;;2.58;1.90;;;16.20;99.90;;;;;;5101814;28;20193;-70
2022/07/06 07:09:57;;;;;;;3.80;2.17;;;16.20;99.90;;;;;;5109147;28;20195;-71
2022/07/06 07:12:23;;;;;;;6.05;2.50;;;16.30;99.90;;;;;;5106737;28;20181;-70
2022/07/06 07:14:49;;;;;;;4.60;2.03;;;16.20;99.90;;;;;;5098274;28;20180;-71
2022/07/06 07:17:15;;;;;;;4.03;2.03;;;16.20;99.90;;;;;;5093889;28;20527;-71
2022/07/06 07:19:41;;;;;;;3.95;2.03;;;16.30;99.90;;;;;;5093192;28;20212;-71
2022/07/06 07:22:07;;;;;;;2.50;2.20;;;16.20;99.90;;;;;;5094111;28;20197;-71
2022/07/06 07:24:32;;;;;;;8.27;2.25;;;16.10;99.90;;;;;;5094314;28;20165;-71
2022/07/06 07:26:58;;;;;;;2.70;1.77;;;16.20;99.90;;;;;;5092854;28;20222;-68
2022/07/06 07:29:24;;;;;;;4.57;2.00;;;16.30;99.90;;;;;;5093952;28;20192;-69
2022/07/06 07:31:50;;;;;;;4.70;1.90;;;16.30;99.90;;;;;;5093890;28;20214;-69
2022/07/06 07:34:16;;;;;;;3.90;2.10;;;16.40;99.90;;;;;;5093899;28;20248;-69
2022/07/06 07:36:41;;;;;;;3.13;1.90;;;16.50;99.90;;;;;;5093492;28;20169;-68
2022/07/06 07:39:07;;;;;;;5.65;2.60;;;16.50;99.90;;;;;;5092409;28;20666;-69
2022/07/06 07:41:33;;;;;;;5.95;1.95;;;16.40;99.90;;;;;;5093944;28;20173;-69
2022/07/06 07:43:59;;;;;;;2.60;2.03;;;16.40;99.90;;;;;;5093632;28;20637;-69
2022/07/06 07:46:24;;;;;;;8.52;2.83;;;16.50;99.90;;;;;;5092489;28;20264;-69
2022/07/06 07:48:50;;;;;;;5.13;2.05;;;16.50;99.90;;;;;;5093583;28;20203;-68
2022/07/06 07:51:16;;;;;;;7.68;2.25;;;16.40;99.90;;;;;;5093665;28;20215;-69
2022/07/06 07:53:41;;;;;;;3.72;1.92;;;16.40;99.90;;;;;;5093610;28;20189;-73
2022/07/06 07:56:07;;;;;;;1.90;1.80;;;16.40;99.90;;;;;;5092686;28;20201;-73
2022/07/06 07:58:33;;;;;;;5.00;2.10;;;16.50;99.90;;;;;;5094000;28;20211;-74
2022/07/06 08:01:00;;;;;;;3.65;2.15;;;16.60;99.90;;;;;;5093531;28;20176;-73
2022/07/06 08:03:26;;;;;;;3.83;1.67;;;16.60;99.90;;;;;;5096361;28;20618;-68
2022/07/06 08:05:52;;;;;;;4.97;2.30;;;16.50;99.90;;;;;;5097834;28;20218;-68
2022/07/06 08:08:18;;;;;;;6.97;2.10;;;16.40;99.90;;;;;;5096930;28;20281;-68
2022/07/06 08:10:44;;;;;;;9.07;2.03;;;16.40;99.90;;;;;;5098206;28;20646;-68
2022/07/06 08:13:10;;;;;;;6.43;1.80;;;16.40;99.90;;;;;;5097776;28;20180;-68
2022/07/06 08:15:36;;;;;;;2.13;1.65;;;16.50;99.90;;;;;;5097707;28;20617;-68
2022/07/06 08:18:03;;;;;;;4.05;1.85;;;16.50;99.90;;;;;;5096360;28;20238;-69
2022/07/06 08:20:29;;;;;;;2.30;1.88;;;16.60;99.90;;;;;;5097265;28;20189;-68
2022/07/06 08:22:55;;;;;;;2.60;1.65;;;16.60;99.90;;;;;;5096145;28;20219;-68
2022/07/06 08:25:21;;;;;;;6.85;1.85;;;16.70;99.90;;;;;;5097556;28;20181;-68
2022/07/06 08:27:48;;;;;;;2.92;1.90;;;16.80;99.90;;;;;;5097664;28;20189;-68
2022/07/06 08:30:13;;;;;;;3.28;1.70;;;16.80;99.90;;;;;;5096349;28;20256;-68
2022/07/06 08:32:43;;;;;;;4.57;1.83;;;16.90;99.90;;;;;;5096055;28;20711;-68
2022/07/06 08:35:10;;;;;;;5.05;2.00;;;16.70;99.90;;;;;;5096485;28;20258;-69
2022/07/06 08:37:36;;;;;;;6.05;1.90;;;16.70;99.90;;;;;;5096963;28;20250;-69
2022/07/06 08:40:02;;;;;;;2.88;1.95;;;16.70;99.90;;;;;;5096491;28;20179;-68
2022/07/06 08:42:33;;;;;;;6.30;2.15;;;16.80;99.90;;;;;;5097864;28;20711;-69
2022/07/06 08:45:02;;;;;;;3.05;1.73;;;17.00;99.90;;;;;;5096291;28;20180;-69
2022/07/06 08:47:29;;;;;;;3.20;1.75;;;17.20;99.90;;;;;;5097424;28;20556;-69
2022/07/06 08:49:55;;;;;;;3.90;1.77;;;17.30;99.90;;;;;;5095995;28;20185;-69
2022/07/06 08:52:23;;;;;;;4.90;2.30;;;17.20;99.90;;;;;;5095847;28;20192;-69
2022/07/06 08:54:49;;;;;;;4.25;2.05;;;17.10;99.90;;;;;;5097117;28;20222;-68
2022/07/06 08:57:15;;;;;;;5.10;1.85;;;17.00;99.90;;;;;;5097398;28;20255;-69
2022/07/06 08:59:41;;;;;;;1.92;1.67;;;16.90;99.90;;;;;;5096989;28;20177;-68
2022/07/06 09:02:09;;;;;;;2.58;1.88;;;16.70;99.90;;;;;;5097125;28;20209;-69
2022/07/06 09:04:36;;;;;;;2.30;1.98;;;16.60;99.90;;;;;;5096689;28;20318;-68
2022/07/06 09:07:02;;;;;;;3.00;1.80;;;16.60;99.90;;;;;;5095283;28;20259;-68
2022/07/06 09:09:33;;;;;;;2.90;1.75;;;16.50;99.90;;;;;;5097262;28;20258;-68
2022/07/06 09:11:59;;;;;;;6.00;2.08;;;16.50;99.90;;;;;;5097297;28;20164;-69
2022/07/06 09:14:25;;;;;;;2.72;1.73;;;16.50;99.90;;;;;;5095894;28;20256;-69
2022/07/06 09:17:05;;;;;;;3.85;1.77;;;16.50;99.90;;;;;;5096180;28;20630;-69
2022/07/06 09:19:33;;;;;;;5.15;2.13;;;16.50;99.90;;;;;;5096438;28;20298;-68
2022/07/06 09:22:00;;;;;;;3.20;1.70;;;16.50;99.90;;;;;;5096108;28;20193;-69
2022/07/06 09:24:26;;;;;;;3.53;2.10;;;16.50;99.90;;;;;;5096379;28;20173;-69
2022/07/06 09:26:55;;;;;;;3.58;1.80;;;16.50;99.90;;;;;;5096256;28;20165;-69
2022/07/06 09:29:29;;;;;;;4.28;1.70;;;16.60;99.90;;;;;;5096010;28;20224;-68
2022/07/06 09:31:59;;;;;;;2.30;1.60;;;16.70;99.90;;;;;;5096011;28;20173;-69
2022/07/06 09:34:39;;;;;;;5.20;1.85;;;16.80;99.90;;;;;;5096081;28;20176;-69
2022/07/06 09:37:06;;;;;;;2.25;1.70;;;16.90;99.90;;;;;;5095732;28;20164;-69
2022/07/06 09:39:32;;;;;;;4.05;1.70;;;17.10;99.90;;;;;;5096235;28;20580;-69
2022/07/06 09:42:00;;;;;;;2.22;1.70;;;17.10;99.90;;;;;;5095905;28;20297;-68
2022/07/06 09:44:34;;;;;;;3.60;1.67;;;17.10;99.90;;;;;;5096000;28;20223;-69
2022/07/06 09:47:02;;;;;;;2.90;1.77;;;17.20;99.90;;;;;;5095907;28;20157;-69
2022/07/06 09:49:28;;;;;;;3.63;1.77;;;17.40;99.90;;;;;;5095735;28;20197;-69
2022/07/06 09:52:00;;;;;;;4.90;2.17;;;17.50;99.90;;;;;;5095612;28;20180;-69
2022/07/06 09:54:26;;;;;;;2.92;1.85;;;17.60;99.90;;;;;;5095614;28;20169;-69
2022/07/06 09:56:53;;;;;;;2.88;1.60;;;17.70;99.90;;;;;;5094370;28;20199;-69
2022/07/06 09:59:26;;;;;;;3.00;1.67;;;17.80;99.90;;;;;;5095479;28;20219;-69
2022/07/06 10:01:54;;;;;;;5.63;1.80;;;18.00;99.90;;;;;;5095567;28;20179;-68
2022/07/06 10:04:21;;;;;;;3.58;1.80;;;18.10;99.90;;;;;;5094273;28;20646;-69
2022/07/06 10:06:47;;;;;;;5.90;2.00;;;18.00;99.90;;;;;;5093837;28;20263;-68
2022/07/06 10:09:14;;;;;;;4.00;1.80;;;18.00;99.90;;;;;;5093976;28;20271;-69
2022/07/06 10:11:50;;;;;;;7.07;2.00;;;17.90;99.90;;;;;;5095590;28;20609;-69
2022/07/06 10:14:19;;;;;;;3.65;2.03;;;18.10;99.90;;;;;;5095294;28;20557;-69
2022/07/06 10:16:47;;;;;;;2.35;1.88;;;18.40;99.90;;;;;;5094193;28;20173;-69
2022/07/06 10:19:14;;;;;;;3.63;1.92;;;18.70;99.90;;;;;;5095050;28;20215;-69
2022/07/06 10:21:41;;;;;;;1.83;1.50;;;18.80;99.90;;;;;;5094943;28;20169;-69
2022/07/06 10:24:08;;;;;;;1.65;1.52;;;18.70;99.90;;;;;;5094999;28;20177;-70
2022/07/06 10:26:35;;;;;;;2.92;1.77;;;18.50;99.90;;;;;;5093655;28;20553;-69
2022/07/06 10:29:03;;;;;;;1.90;1.50;;;18.40;99.90;;;;;;5095096;28;20185;-69
2022/07/06 10:31:30;;;;;;;6.90;1.67;;;18.90;99.90;;;;;;5094922;28;20246;-69
2022/07/06 10:34:04;;;;;;;2.42;1.58;;;19.40;99.90;;;;;;5093722;28;20187;-69
2022/07/06 10:36:30;;;;;;;1.88;1.40;;;20.00;99.90;;;;;;5093445;28;20278;-69
2022/07/06 10:38:57;;;;;;;3.08;1.40;;;20.20;99.90;;;;;;5093626;28;20244;-73
2022/07/06 10:41:37;;;;;;;2.15;1.45;;;19.80;99.90;;;;;;5093938;28;20188;-69
2022/07/06 10:44:22;;;;;;;3.88;1.60;;;19.70;99.90;;;;;;5093839;28;20192;-69
2022/07/06 10:46:56;;;;;;;3.25;1.63;;;19.60;99.90;;;;;;5095016;28;20558;-69
2022/07/06 10:49:24;;;;;;;2.35;1.73;;;19.50;99.90;;;;;;5093423;28;20214;-69
2022/07/06 10:51:50;;;;;;;2.08;1.42;;;19.40;99.90;;;;;;5094674;28;20176;-73
2022/07/06 10:54:18;;;;;;;3.15;1.35;;;19.20;99.90;;;;;;5093657;28;20649;-68
2022/07/06 10:56:47;;;;;;;3.28;1.55;;;19.20;99.90;;;;;;5094398;28;20201;-68
2022/07/06 10:59:17;;;;;;;2.72;1.45;;;19.30;99.90;;;;;;5094001;28;20275;-69
2022/07/06 11:02:11;;;;;;;3.28;1.60;;;19.20;99.90;;;;;;5094213;28;20695;-69
2022/07/06 11:04:38;;;;;;;2.20;1.58;;;19.20;99.90;;;;;;5093031;28;20268;-69
2022/07/06 11:07:18;;;;;;;4.40;1.85;;;19.20;99.90;;;;;;5093716;28;20162;-69
2022/07/06 11:09:59;;;;;;;1.45;1.35;;;19.20;99.90;;;;;;5092729;28;20204;-69
2022/07/06 11:12:25;;;;;;;1.60;1.40;;;19.00;99.90;;;;;;5093952;28;20187;-69
2022/07/06 11:14:53;;;;;;;3.83;1.60;;;18.80;99.90;;;;;;5092599;28;20173;-69
2022/07/06 11:17:19;;;;;;;1.90;1.65;;;18.70;99.90;;;;;;5093537;28;20188;-69
2022/07/06 11:19:56;;;;;;;2.55;1.50;;;18.60;99.90;;;;;;5094006;28;20216;-68
2022/07/06 11:22:24;;;;;;;4.20;2.03;;;18.50;99.90;;;;;;5093532;28;20196;-68
2022/07/06 11:24:51;;;;;;;3.63;1.75;;;18.50;99.90;;;;;;5093631;28;20177;-68
2022/07/06 11:27:18;;;;;;;1.50;1.40;;;18.50;99.90;;;;;;5092388;28;20173;-68
2022/07/06 11:29:44;;;;;;;5.68;1.70;;;18.40;99.90;;;;;;5093534;28;20169;-68
2022/07/06 11:32:13;;;;;;;4.25;1.83;;;18.30;99.90;;;;;;5093736;28;20173;-68
2022/07/06 11:34:44;;;;;;;2.25;1.65;;;18.40;99.90;;;;;;5093786;28;20207;-69
2022/07/06 11:37:14;;;;;;;3.13;1.52;;;18.80;99.90;;;;;;5092809;28;20192;-69
2022/07/06 11:39:42;;;;;;;3.15;1.80;;;19.60;99.90;;;;;;5093742;28;20184;-69
2022/07/06 11:42:09;;;;;;;3.30;1.52;;;20.00;99.90;;;;;;5093684;28;20216;-69
2022/07/06 11:44:36;;;;;;;3.20;1.63;;;20.50;99.90;;;;;;5092161;28;20176;-68
2022/07/06 11:47:03;;;;;;;3.42;1.45;;;20.50;99.90;;;;;;5092157;28;20173;-69
2022/07/06 11:49:30;;;;;;;3.92;1.67;;;20.40;99.90;;;;;;5093215;28;20600;-68
2022/07/06 11:51:57;;;;;;;2.85;1.60;;;20.30;99.90;;;;;;5093485;28;20539;-70
2022/07/06 11:54:24;;;;;;;3.60;1.67;;;20.20;99.90;;;;;;5093426;28;20195;-68
2022/07/06 11:57:00;;;;;;;4.75;1.63;;;19.80;99.90;;;;;;5093308;28;20700;-68
2022/07/06 11:59:30;;;;;;;1.60;1.50;;;19.40;99.90;;;;;;5093358;28;20200;-69
2022/07/06 12:02:07;;;;;;;2.70;1.40;;;19.40;99.90;;;;;;5093216;28;20215;-68
2022/07/06 12:04:35;;;;;;;1.50;1.38;;;19.40;99.90;;;;;;5093404;28;20168;-68
2022/07/06 12:07:03;;;;;;;2.10;1.70;;;19.50;99.90;;;;;;5093108;28;20172;-68
2022/07/06 12:09:33;;;;;;;3.55;1.67;;;19.50;99.90;;;;;;5093223;28;20193;-68
2022/07/06 12:12:02;;;;;;;2.05;1.58;;;19.70;99.90;;;;;;5092082;28;20180;-69
2022/07/06 12:14:29;;;;;;;4.88;1.30;;;19.90;99.90;;;;;;5093483;28;20256;-68
2022/07/06 12:16:55;;;;;;;2.08;1.60;;;20.10;99.90;;;;;;5093617;28;20180;-69
2022/07/06 12:19:24;;;;;;;6.32;1.80;;;20.10;99.90;;;;;;5093057;28;20205;-68
2022/07/06 12:21:52;;;;;;;6.65;1.67;;;20.20;99.90;;;;;;5093115;28;20173;-68
2022/07/06 12:24:28;;;;;;;1.65;1.42;;;20.00;99.90;;;;;;5092050;28;20283;-68
2022/07/06 12:26:54;;;;;;;3.72;1.50;;;20.30;99.90;;;;;;5093879;28;20157;-68
2022/07/06 12:29:22;;;;;;;4.30;1.60;;;20.50;99.90;;;;;;5093137;28;20669;-68
2022/07/06 12:31:51;;;;;;;2.63;1.48;;;20.40;99.90;;;;;;5093205;28;20197;-69
2022/07/06 12:34:25;;;;;;;2.83;2.22;;;20.50;99.90;;;;;;5093504;28;20169;-69
2022/07/06 12:36:52;;;;;;;4.28;1.60;;;20.40;99.90;;;;;;5093090;28;20193;-68
2022/07/06 12:39:21;;;;;;;2.20;1.42;;;20.70;99.90;;;;;;5091882;28;20220;-69
2022/07/06 12:42:02;;;;;;;2.42;1.55;;;20.90;99.90;;;;;;5091869;28;20252;-69
2022/07/06 12:44:29;;;;;;;5.63;1.40;;;21.30;99.90;;;;;;5093678;28;20152;-68
2022/07/06 12:47:08;;;;;;;6.53;1.50;;;21.80;99.90;;;;;;5093689;28;20215;-69
2022/07/06 12:49:36;;;;;;;4.20;1.75;;;22.30;99.90;;;;;;5096081;28;20208;-69